Terminal Aerodrome Forecast
Issued by NWS Quad Cities IA IL

Home | Current Version | Previous Version | Text Only | Print | Product List | Glossary On
Versions: 1 2 3 4 5 6 7 8 9 10 11 12 13 14 15 16 17 18 19 20 21 22 23 24
070
FTUS43 KDVN 301011 AAA
TAFMLI
TAF AMD
KMLI 301011Z 3010/0106 24005KT P6SM SCT030
     FM301100 24010KT P6SM OVC025
     FM301600 26012KT P6SM OVC015
     FM302100 25012G18KT P6SM OVC020
     FM010100 26012KT 6SM BR BKN020=

USA.gov is the U.S. government's official web portal to all federal, state and local government web resources and services.